Time,TemperatureF,DewpointF,PressureIn,WindDirection,WindDirectionDegrees,WindSpeedMPH,WindSpeedGustMPH,Humidity,HourlyPrecipIn,Conditions,Clouds,dailyrainin,SoftwareType,DateUTC
2013-04-14 00:01:00,38.0,28.0,-100.00,WSW,257,19.0,26.0,70,0.00,,,-99.99,,2013-04-14 00:01:00,
2013-04-14 00:11:00,37.0,28.0,-100.00,WSW,254,21.0,26.0,68,0.00,,,-99.99,,2013-04-14 00:11:00,
2013-04-14 00:21:00,37.0,28.0,-100.00,WSW,248,16.0,21.0,69,0.00,,,-99.99,,2013-04-14 00:21:00,
2013-04-14 00:31:00,38.0,26.0,-100.00,WSW,257,25.0,30.0,61,0.00,,,-99.99,,2013-04-14 00:31:00,
2013-04-14 00:41:00,35.0,30.0,-100.00,West,264,17.0,29.0,80,0.06,,,-99.99,,2013-04-14 00:41:00,
2013-04-14 00:52:00,35.0,27.0,-100.00,WSW,251,9.0,15.0,72,0.00,,,-99.99,,2013-04-14 00:52:00,
2013-04-14 01:02:00,37.0,26.0,-100.00,WSW,250,9.0,12.0,65,0.00,,,-99.99,,2013-04-14 01:02:00,
2013-04-14 01:11:00,38.0,24.0,-100.00,WSW,250,11.0,15.0,56,0.00,,,-99.99,,2013-04-14 01:11:00,
2013-04-14 01:22:00,38.0,23.0,-100.00,WSW,251,9.0,12.0,53,0.00,,,-99.99,,2013-04-14 01:22:00,
2013-04-14 01:32:00,38.0,23.0,-100.00,WSW,250,7.0,8.0,53,0.00,,,-99.99,,2013-04-14 01:32:00,
2013-04-14 01:41:00,38.0,22.0,-100.00,WSW,243,7.0,10.0,53,0.00,,,-99.99,,2013-04-14 01:41:00,
2013-04-14 01:52:00,37.0,17.0,-100.00,SW,234,17.0,24.0,43,0.00,,,-99.99,,2013-04-14 01:52:00,
2013-04-14 02:02:00,35.0,18.0,-100.00,SW,232,10.0,14.0,48,0.00,,,-99.99,,2013-04-14 02:02:00,
2013-04-14 02:11:00,35.0,20.0,-100.00,SW,222,12.0,15.0,53,0.00,,,-99.99,,2013-04-14 02:11:00,
2013-04-14 02:21:00,34.0,19.0,-100.00,SW,224,14.0,16.0,53,0.00,,,-99.99,,2013-04-14 02:21:00,
2013-04-14 02:32:00,35.0,16.0,-100.00,WSW,239,12.0,17.0,47,0.00,,,-99.99,,2013-04-14 02:32:00,
2013-04-14 02:41:00,35.0,16.0,-100.00,WSW,253,11.0,15.0,46,0.00,,,-99.99,,2013-04-14 02:41:00,
2013-04-14 02:52:00,34.0,18.0,-100.00,WSW,243,12.0,18.0,53,0.00,,,-99.99,,2013-04-14 02:52:00,
2013-04-14 03:02:00,34.0,14.0,-100.00,WSW,244,13.0,20.0,43,0.00,,,-99.99,,2013-04-14 03:02:00,
2013-04-14 03:12:00,33.0,14.0,-100.00,WSW,246,12.0,20.0,45,0.00,,,-99.99,,2013-04-14 03:12:00,
2013-04-14 03:33:00,32.0,13.0,-100.00,SW,230,16.0,22.0,43,0.00,,,-99.99,,2013-04-14 03:33:00,
2013-04-14 03:42:00,33.0,11.0,-100.00,SW,227,17.0,21.0,41,0.00,,,-99.99,,2013-04-14 03:42:00,
2013-04-14 03:52:00,32.0,10.0,-100.00,WSW,240,16.0,21.0,40,0.00,,,-99.99,,2013-04-14 03:52:00,
2013-04-14 04:02:00,32.0,11.0,-100.00,SW,234,15.0,20.0,42,0.00,,,-99.99,,2013-04-14 04:02:00,
2013-04-14 04:12:00,31.0,11.0,-100.00,WSW,246,13.0,21.0,42,0.00,,,-99.99,,2013-04-14 04:12:00,
2013-04-14 04:22:00,30.0,12.0,-100.00,WSW,246,9.0,12.0,46,0.00,,,-99.99,,2013-04-14 04:22:00,
2013-04-14 04:32:00,30.0,13.0,-100.00,WSW,251,12.0,16.0,48,0.00,,,-99.99,,2013-04-14 04:32:00,
2013-04-14 04:42:00,30.0,12.0,-100.00,WSW,244,13.0,17.0,47,0.00,,,-99.99,,2013-04-14 04:42:00,
2013-04-14 04:52:00,30.0,13.0,-100.00,WSW,248,11.0,14.0,49,0.00,,,-99.99,,2013-04-14 04:52:00,
2013-04-14 05:02:00,29.0,13.0,-100.00,WSW,243,9.0,14.0,51,0.00,,,-99.99,,2013-04-14 05:02:00,
2013-04-14 05:12:00,29.0,11.0,-100.00,WSW,246,16.0,25.0,46,0.00,,,-99.99,,2013-04-14 05:12:00,
2013-04-14 05:22:00,29.0,11.0,-100.00,SW,230,28.0,35.0,45,0.00,,,-99.99,,2013-04-14 05:22:00,
2013-04-14 05:32:00,29.0,9.0,-100.00,West,270,15.0,23.0,41,0.00,,,-99.99,,2013-04-14 05:32:00,
2013-04-14 05:42:00,30.0,6.0,-100.00,NNW,335,12.0,16.0,36,0.00,,,-99.99,,2013-04-14 05:42:00,
2013-04-14 05:52:00,29.0,7.0,-100.00,WSW,254,19.0,22.0,38,0.00,,,-99.99,,2013-04-14 05:52:00,
2013-04-14 06:01:00,29.0,8.0,-100.00,West,268,11.0,16.0,40,0.00,,,-99.99,,2013-04-14 06:01:00,
2013-04-14 06:11:00,29.0,7.0,-100.00,West,277,9.0,11.0,39,0.00,,,-99.99,,2013-04-14 06:11:00,
2013-04-14 06:21:00,29.0,7.0,-100.00,West,261,14.0,17.0,39,0.00,,,-99.99,,2013-04-14 06:21:00,
2013-04-14 06:32:00,29.0,6.0,-100.00,West,265,10.0,14.0,38,0.00,,,-99.99,,2013-04-14 06:32:00,
2013-04-14 06:42:00,28.0,6.0,-100.00,WSW,250,11.0,16.0,38,0.00,,,-99.99,,2013-04-14 06:42:00,
2013-04-14 06:51:00,29.0,7.0,-100.00,West,274,11.0,13.0,39,0.00,,,-99.99,,2013-04-14 06:51:00,
2013-04-14 07:01:00,28.0,7.0,-100.00,WNW,302,7.0,9.0,40,0.00,,,-99.99,,2013-04-14 07:01:00,
2013-04-14 07:11:00,29.0,5.0,-100.00,NNW,329,6.0,8.0,37,0.00,,,-99.99,,2013-04-14 07:11:00,
2013-04-14 07:21:00,26.0,20.0,-100.00,ENE,58,9.0,11.0,77,0.00,,,-99.99,,2013-04-14 07:21:00,
2013-04-14 07:32:00,26.0,24.0,-100.00,NE,55,9.0,12.0,93,0.00,,,-99.99,,2013-04-14 07:32:00,
2013-04-14 07:41:00,26.0,25.0,-100.00,ENE,68,5.0,9.0,96,0.00,,,-99.99,,2013-04-14 07:41:00,
2013-04-14 07:52:00,25.0,24.0,-100.00,ENE,59,4.0,7.0,97,0.00,,,-99.99,,2013-04-14 07:52:00,
2013-04-14 08:01:00,26.0,23.0,-100.00,North,353,2.0,4.0,91,0.00,,,-99.99,,2013-04-14 08:01:00,
2013-04-14 08:11:00,26.0,24.0,-100.00,NW,305,2.0,4.0,92,0.00,,,-99.99,,2013-04-14 08:11:00,
2013-04-14 08:21:00,25.0,24.0,-100.00,ENE,59,5.0,7.0,94,0.00,,,-99.99,,2013-04-14 08:21:00,
2013-04-14 08:32:00,24.0,23.0,-100.00,NE,48,7.0,8.0,94,0.00,,,-99.99,,2013-04-14 08:32:00,
2013-04-14 08:41:00,24.0,22.0,-100.00,NE,56,7.0,8.0,95,0.00,,,-99.99,,2013-04-14 08:41:00,
2013-04-14 08:51:00,24.0,22.0,-100.00,ENE,61,6.0,7.0,94,0.00,,,-99.99,,2013-04-14 08:51:00,
2013-04-14 09:02:00,24.0,22.0,-100.00,ENE,59,6.0,6.0,94,0.00,,,-99.99,,2013-04-14 09:02:00,
2013-04-14 09:11:00,24.0,22.0,-100.00,ENE,71,4.0,4.0,94,0.00,,,-99.99,,2013-04-14 09:11:00,
2013-04-14 09:21:00,24.0,22.0,-100.00,NE,48,3.0,4.0,94,0.01,,,-99.99,,2013-04-14 09:21:00,
2013-04-14 09:32:00,24.0,22.0,-100.00,NE,45,4.0,4.0,95,0.01,,,-99.99,,2013-04-14 09:32:00,
2013-04-14 09:42:00,23.0,22.0,-100.00,NE,48,6.0,7.0,95,0.00,,,-99.99,,2013-04-14 09:42:00,
2013-04-14 09:53:00,23.0,22.0,-100.00,ENE,61,6.0,6.0,96,0.00,,,-99.99,,2013-04-14 09:53:00,
2013-04-14 10:02:00,22.0,22.0,-100.00,ENE,75,2.0,4.0,96,0.00,,,-99.99,,2013-04-14 10:02:00,
2013-04-14 10:12:00,23.0,22.0,-100.00,ENE,62,4.0,4.0,96,0.00,,,-99.99,,2013-04-14 10:12:00,
2013-04-14 10:22:00,22.0,22.0,-100.00,NE,51,7.0,8.0,96,0.00,,,-99.99,,2013-04-14 10:22:00,
2013-04-14 10:32:00,22.0,22.0,-100.00,ENE,62,6.0,9.0,97,0.00,,,-99.99,,2013-04-14 10:32:00,
2013-04-14 10:42:00,22.0,22.0,-100.00,NE,56,7.0,9.0,97,0.00,,,-99.99,,2013-04-14 10:42:00,
2013-04-14 10:52:00,22.0,21.0,-100.00,NW,318,6.0,9.0,97,0.00,,,-99.99,,2013-04-14 10:52:00,
2013-04-14 11:02:00,22.0,21.0,-100.00,NW,312,7.0,10.0,97,0.01,,,-99.99,,2013-04-14 11:02:00,
2013-04-14 11:11:00,22.0,21.0,-100.00,NW,319,6.0,7.0,96,0.00,,,-99.99,,2013-04-14 11:11:00,
2013-04-14 11:22:00,22.0,21.0,-100.00,NNW,332,2.0,4.0,96,0.00,,,-99.99,,2013-04-14 11:22:00,
2013-04-14 11:32:00,22.0,21.0,-100.00,NNW,328,3.0,4.0,96,0.00,,,-99.99,,2013-04-14 11:32:00,
2013-04-14 11:42:00,22.0,21.0,-100.00,NW,325,2.0,2.0,96,0.00,,,-99.99,,2013-04-14 11:42:00,
2013-04-14 11:52:00,21.0,20.0,-100.00,NNW,346,3.0,4.0,96,0.00,,,-99.99,,2013-04-14 11:52:00,
2013-04-14 12:01:00,21.0,20.0,-100.00,NW,304,2.0,3.0,96,0.00,,,-99.99,,2013-04-14 12:01:00,
2013-04-14 12:11:00,22.0,21.0,-100.00,NW,318,2.0,3.0,96,0.00,,,-99.99,,2013-04-14 12:11:00,
2013-04-14 12:21:00,21.0,20.0,-100.00,SW,215,5.0,6.0,95,0.00,,,-99.99,,2013-04-14 12:21:00,
2013-04-14 12:32:00,21.0,20.0,-100.00,SSW,196,4.0,5.0,95,0.00,,,-99.99,,2013-04-14 12:32:00,
2013-04-14 12:42:00,20.0,19.0,-100.00,South,191,6.0,6.0,95,0.00,,,-99.99,,2013-04-14 12:42:00,
2013-04-14 12:51:00,20.0,19.0,-100.00,South,181,1.0,1.0,95,0.00,,,-99.99,,2013-04-14 12:51:00,
2013-04-14 13:02:00,20.0,15.0,-100.00,WSW,251,3.0,8.0,83,0.00,,,-99.99,,2013-04-14 13:02:00,
2013-04-14 13:11:00,21.0,9.0,-100.00,WNW,296,7.0,10.0,58,0.00,,,-99.99,,2013-04-14 13:11:00,
2013-04-14 13:22:00,23.0,3.0,-100.00,West,271,5.0,7.0,41,0.00,,,-99.99,,2013-04-14 13:22:00,
2013-04-14 13:32:00,23.0,-2.0,-100.00,West,267,6.0,10.0,33,0.00,,,-99.99,,2013-04-14 13:32:00,
2013-04-14 13:41:00,24.0,1.0,-100.00,WSW,244,6.0,9.0,38,0.00,,,-99.99,,2013-04-14 13:41:00,
2013-04-14 13:52:00,23.0,2.0,-100.00,North,360,6.0,9.0,40,0.00,,,-99.99,,2013-04-14 13:52:00,
2013-04-14 14:02:00,23.0,1.0,-100.00,NNW,347,7.0,10.0,37,0.00,,,-99.99,,2013-04-14 14:02:00,
2013-04-14 14:11:00,24.0,1.0,-100.00,NW,312,8.0,11.0,37,0.00,,,-99.99,,2013-04-14 14:11:00,
2013-04-14 14:21:00,24.0,3.0,-100.00,NW,316,5.0,6.0,40,0.00,,,-99.99,,2013-04-14 14:21:00,
2013-04-14 14:32:00,25.0,2.0,-100.00,WSW,250,3.0,5.0,35,0.00,,,-99.99,,2013-04-14 14:32:00,
2013-04-14 14:41:00,27.0,2.0,-100.00,NW,326,1.0,2.0,34,0.00,,,-99.99,,2013-04-14 14:41:00,
2013-04-14 14:52:00,27.0,2.0,-100.00,North,350,1.0,2.0,33,0.00,,,-99.99,,2013-04-14 14:52:00,
2013-04-14 15:02:00,27.0,2.0,-100.00,NW,326,1.0,2.0,34,0.00,,,-99.99,,2013-04-14 15:02:00,
2013-04-14 15:11:00,28.0,3.0,-100.00,WNW,298,1.0,1.0,33,0.00,,,-99.99,,2013-04-14 15:11:00,
2013-04-14 15:22:00,28.0,2.0,-100.00,ENE,61,1.0,2.0,32,0.00,,,-99.99,,2013-04-14 15:22:00,
2013-04-14 15:33:00,27.0,5.0,-100.00,ENE,73,4.0,6.0,38,0.00,,,-99.99,,2013-04-14 15:33:00,
2013-04-14 15:42:00,27.0,6.0,-100.00,ENE,64,1.0,2.0,38,0.00,,,-99.99,,2013-04-14 15:42:00,
2013-04-14 15:52:00,27.0,7.0,-100.00,ENE,72,6.0,9.0,42,0.00,,,-99.99,,2013-04-14 15:52:00,
2013-04-14 16:03:00,27.0,8.0,-100.00,ENE,64,5.0,7.0,44,0.00,,,-99.99,,2013-04-14 16:03:00,
2013-04-14 16:12:00,27.0,7.0,-100.00,NE,38,4.0,8.0,42,0.00,,,-99.99,,2013-04-14 16:12:00,
2013-04-14 16:22:00,28.0,6.0,-100.00,East,82,3.0,5.0,38,0.00,,,-99.99,,2013-04-14 16:22:00,
2013-04-14 16:32:00,28.0,7.0,-100.00,ENE,72,3.0,4.0,41,0.00,,,-99.99,,2013-04-14 16:32:00,
2013-04-14 16:42:00,28.0,6.0,-100.00,NE,45,4.0,6.0,38,0.00,,,-99.99,,2013-04-14 16:42:00,
2013-04-14 16:52:00,29.0,6.0,-100.00,East,83,4.0,9.0,37,0.00,,,-99.99,,2013-04-14 16:52:00,
2013-04-14 17:01:00,29.0,7.0,-100.00,ESE,113,4.0,5.0,38,0.00,,,-99.99,,2013-04-14 17:01:00,
2013-04-14 17:11:00,29.0,6.0,-100.00,SSE,148,3.0,4.0,38,0.00,,,-99.99,,2013-04-14 17:11:00,
2013-04-14 17:22:00,30.0,0.0,-100.00,SSW,198,2.0,5.0,27,0.00,,,-99.99,,2013-04-14 17:22:00,
2013-04-14 17:32:00,30.0,8.0,-100.00,WNW,301,12.0,15.0,40,0.00,,,-99.99,,2013-04-14 17:32:00,
2013-04-14 17:41:00,31.0,3.0,-100.00,WNW,284,14.0,21.0,29,0.00,,,-99.99,,2013-04-14 17:41:00,
2013-04-14 17:52:00,32.0,2.0,-100.00,WNW,282,16.0,24.0,27,0.00,,,-99.99,,2013-04-14 17:52:00,
2013-04-14 18:02:00,32.0,2.0,-100.00,West,274,15.0,17.0,26,0.00,,,-99.99,,2013-04-14 18:02:00,
2013-04-14 18:12:00,33.0,5.0,-100.00,WNW,285,15.0,18.0,30,0.00,,,-99.99,,2013-04-14 18:12:00,
2013-04-14 18:21:00,33.0,4.0,-100.00,West,275,18.0,22.0,28,0.00,,,-99.99,,2013-04-14 18:21:00,
2013-04-14 18:32:00,32.0,3.0,-100.00,WSW,256,20.0,26.0,28,0.00,,,-99.99,,2013-04-14 18:32:00,
2013-04-14 18:42:00,32.0,-1.0,-100.00,West,260,20.0,25.0,24,0.00,,,-99.99,,2013-04-14 18:42:00,
2013-04-14 18:51:00,34.0,5.0,-100.00,West,265,19.0,23.0,29,0.00,,,-99.99,,2013-04-14 18:51:00,
2013-04-14 19:02:00,33.0,2.0,-100.00,WSW,253,18.0,23.0,27,0.00,,,-99.99,,2013-04-14 19:02:00,
2013-04-14 19:11:00,33.0,5.0,-100.00,WSW,258,22.0,26.0,30,0.00,,,-99.99,,2013-04-14 19:11:00,
2013-04-14 19:32:00,34.0,5.0,-100.00,WNW,285,19.0,27.0,29,0.00,,,-99.99,,2013-04-14 19:32:00,
2013-04-14 19:42:00,34.0,2.0,-100.00,West,281,14.0,17.0,25,0.00,,,-99.99,,2013-04-14 19:42:00,
2013-04-14 19:52:00,35.0,2.0,-100.00,WSW,258,20.0,24.0,24,0.00,,,-99.99,,2013-04-14 19:52:00,
2013-04-14 20:02:00,34.0,4.0,-100.00,WSW,257,21.0,24.0,27,0.00,,,-99.99,,2013-04-14 20:02:00,
2013-04-14 20:11:00,34.0,1.0,-100.00,WNW,292,23.0,29.0,24,0.00,,,-99.99,,2013-04-14 20:11:00,
2013-04-14 20:21:00,35.0,7.0,-100.00,West,261,23.0,29.0,30,0.00,,,-99.99,,2013-04-14 20:21:00,
2013-04-14 20:32:00,35.0,2.0,-100.00,West,264,21.0,26.0,24,0.00,,,-99.99,,2013-04-14 20:32:00,
2013-04-14 20:42:00,35.0,3.0,-100.00,West,263,20.0,24.0,26,0.00,,,-99.99,,2013-04-14 20:42:00,
2013-04-14 20:52:00,36.0,1.0,-100.00,West,267,24.0,32.0,22,0.00,,,-99.99,,2013-04-14 20:52:00,
2013-04-14 21:02:00,36.0,6.0,-100.00,West,261,19.0,21.0,28,0.00,,,-99.99,,2013-04-14 21:02:00,
2013-04-14 21:11:00,35.0,2.0,-100.00,WSW,256,24.0,30.0,24,0.00,,,-99.99,,2013-04-14 21:11:00,
2013-04-14 21:22:00,36.0,6.0,-100.00,West,265,16.0,19.0,29,0.00,,,-99.99,,2013-04-14 21:22:00,
2013-04-14 21:32:00,36.0,10.0,-100.00,WSW,256,21.0,26.0,33,0.00,,,-99.99,,2013-04-14 21:32:00,
2013-04-14 21:42:00,36.0,7.0,-100.00,WSW,258,20.0,27.0,30,0.00,,,-99.99,,2013-04-14 21:42:00,
2013-04-14 21:52:00,36.0,2.0,-100.00,West,270,19.0,23.0,22,0.00,,,-99.99,,2013-04-14 21:52:00,
2013-04-14 22:02:00,36.0,5.0,-100.00,WSW,258,21.0,26.0,27,0.00,,,-99.99,,2013-04-14 22:02:00,
2013-04-14 22:12:00,36.0,8.0,-100.00,WSW,257,18.0,22.0,31,0.00,,,-99.99,,2013-04-14 22:12:00,
2013-04-14 22:22:00,36.0,7.0,-100.00,WSW,251,18.0,24.0,29,0.00,,,-99.99,,2013-04-14 22:22:00,
2013-04-14 22:32:00,36.0,7.0,-100.00,West,261,18.0,24.0,29,0.00,,,-99.99,,2013-04-14 22:32:00,
2013-04-14 22:42:00,37.0,6.0,-100.00,West,260,17.0,21.0,27,0.00,,,-99.99,,2013-04-14 22:42:00,
2013-04-14 22:52:00,36.0,4.0,-100.00,WSW,256,14.0,19.0,25,0.00,,,-99.99,,2013-04-14 22:52:00,
2013-04-14 23:02:00,36.0,1.0,-100.00,West,263,12.0,16.0,22,0.00,,,-99.99,,2013-04-14 23:02:00,
2013-04-14 23:12:00,35.0,6.0,-100.00,WSW,256,19.0,23.0,29,0.00,,,-99.99,,2013-04-14 23:12:00,
2013-04-14 23:21:00,35.0,8.0,-100.00,WSW,257,17.0,21.0,32,0.00,,,-99.99,,2013-04-14 23:21:00,
2013-04-14 23:32:00,35.0,9.0,-100.00,WSW,258,17.0,21.0,33,0.00,,,-99.99,,2013-04-14 23:32:00,
2013-04-14 23:42:00,35.0,8.0,-100.00,WSW,256,17.0,21.0,32,0.00,,,-99.99,,2013-04-14 23:42:00,
2013-04-14 23:52:00,35.0,8.0,-100.00,WSW,254,14.0,18.0,31,0.00,,,-99.99,,2013-04-14 23:52:00,